sensor_id;sensor_type;location;lat;lon;timestamp;temperature;humidity
8945;DHT22;4507;40.232;29.132;2022-07-23T00:01:17;20.80;62.40
8945;DHT22;4507;40.232;29.132;2022-07-23T00:03:50;20.80;62.40
8945;DHT22;4507;40.232;29.132;2022-07-23T00:06:21;20.80;62.30
8945;DHT22;4507;40.232;29.132;2022-07-23T00:08:50;20.80;62.70
8945;DHT22;4507;40.232;29.132;2022-07-23T00:11:19;20.80;61.90
8945;DHT22;4507;40.232;29.132;2022-07-23T00:13:50;20.80;61.90
8945;DHT22;4507;40.232;29.132;2022-07-23T00:16:20;20.80;61.80
8945;DHT22;4507;40.232;29.132;2022-07-23T00:18:49;20.80;61.70
8945;DHT22;4507;40.232;29.132;2022-07-23T00:21:17;20.90;61.70
8945;DHT22;4507;40.232;29.132;2022-07-23T00:23:46;20.90;61.50
8945;DHT22;4507;40.232;29.132;2022-07-23T00:26:14;21.00;61.50
8945;DHT22;4507;40.232;29.132;2022-07-23T00:28:43;21.00;61.30
8945;DHT22;4507;40.232;29.132;2022-07-23T00:31:13;21.00;61.10
8945;DHT22;4507;40.232;29.132;2022-07-23T00:33:42;21.00;60.90
8945;DHT22;4507;40.232;29.132;2022-07-23T00:36:11;21.00;60.60
8945;DHT22;4507;40.232;29.132;2022-07-23T00:38:39;21.00;60.60
8945;DHT22;4507;40.232;29.132;2022-07-23T00:41:08;21.00;60.50
8945;DHT22;4507;40.232;29.132;2022-07-23T00:43:37;21.10;60.60
8945;DHT22;4507;40.232;29.132;2022-07-23T00:46:05;21.10;60.50
8945;DHT22;4507;40.232;29.132;2022-07-23T00:48:35;21.10;60.40
8945;DHT22;4507;40.232;29.132;2022-07-23T00:51:05;21.10;60.30
8945;DHT22;4507;40.232;29.132;2022-07-23T00:53:33;21.10;60.20
8945;DHT22;4507;40.232;29.132;2022-07-23T00:56:03;21.10;60.10
8945;DHT22;4507;40.232;29.132;2022-07-23T00:58:32;21.10;60.00
8945;DHT22;4507;40.232;29.132;2022-07-23T01:01:01;21.10;59.80
8945;DHT22;4507;40.232;29.132;2022-07-23T01:03:30;21.10;59.70
8945;DHT22;4507;40.232;29.132;2022-07-23T01:06:00;21.00;59.70
8945;DHT22;4507;40.232;29.132;2022-07-23T01:08:29;21.10;59.90
8945;DHT22;4507;40.232;29.132;2022-07-23T01:10:57;21.00;60.00
8945;DHT22;4507;40.232;29.132;2022-07-23T01:13:26;21.00;60.10
8945;DHT22;4507;40.232;29.132;2022-07-23T01:15:55;21.00;60.40
8945;DHT22;4507;40.232;29.132;2022-07-23T01:18:24;21.50;61.20
8945;DHT22;4507;40.232;29.132;2022-07-23T01:20:53;21.00;60.90
8945;DHT22;4507;40.232;29.132;2022-07-23T01:23:23;21.00;61.10
8945;DHT22;4507;40.232;29.132;2022-07-23T01:25:55;21.00;61.20
8945;DHT22;4507;40.232;29.132;2022-07-23T01:28:26;21.00;61.20
8945;DHT22;4507;40.232;29.132;2022-07-23T01:30:56;21.00;61.10
8945;DHT22;4507;40.232;29.132;2022-07-23T01:33:29;21.20;61.30
8945;DHT22;4507;40.232;29.132;2022-07-23T01:35:59;21.00;61.10
8945;DHT22;4507;40.232;29.132;2022-07-23T01:38:29;20.90;61.10
8945;DHT22;4507;40.232;29.132;2022-07-23T01:40:58;20.80;61.20
8945;DHT22;4507;40.232;29.132;2022-07-23T01:43:30;20.80;61.40
8945;DHT22;4507;40.232;29.132;2022-07-23T01:45:59;20.80;61.70
8945;DHT22;4507;40.232;29.132;2022-07-23T01:48:33;20.70;61.70
8945;DHT22;4507;40.232;29.132;2022-07-23T01:51:34;20.70;61.70
8945;DHT22;4507;40.232;29.132;2022-07-23T01:54:11;20.60;61.80
8945;DHT22;4507;40.232;29.132;2022-07-23T01:56:40;20.70;62.10
8945;DHT22;4507;40.232;29.132;2022-07-23T01:59:09;20.70;62.20
8945;DHT22;4507;40.232;29.132;2022-07-23T02:01:38;20.60;62.20
8945;DHT22;4507;40.232;29.132;2022-07-23T02:04:07;20.60;62.30
8945;DHT22;4507;40.232;29.132;2022-07-23T02:06:35;20.60;62.50
8945;DHT22;4507;40.232;29.132;2022-07-23T02:09:04;20.50;62.60
8945;DHT22;4507;40.232;29.132;2022-07-23T02:11:34;20.50;62.70
8945;DHT22;4507;40.232;29.132;2022-07-23T02:14:03;20.50;62.90
8945;DHT22;4507;40.232;29.132;2022-07-23T02:16:32;20.40;62.70
8945;DHT22;4507;40.232;29.132;2022-07-23T02:19:01;20.50;62.90
8945;DHT22;4507;40.232;29.132;2022-07-23T02:21:30;20.50;63.00
8945;DHT22;4507;40.232;29.132;2022-07-23T02:23:59;20.50;63.10
8945;DHT22;4507;40.232;29.132;2022-07-23T02:26:28;20.40;63.10
8945;DHT22;4507;40.232;29.132;2022-07-23T02:28:58;20.50;63.30
8945;DHT22;4507;40.232;29.132;2022-07-23T02:31:27;20.50;63.30
8945;DHT22;4507;40.232;29.132;2022-07-23T02:33:56;20.50;63.30
8945;DHT22;4507;40.232;29.132;2022-07-23T02:36:25;20.40;63.30
8945;DHT22;4507;40.232;29.132;2022-07-23T02:38:54;20.50;63.30
8945;DHT22;4507;40.232;29.132;2022-07-23T02:41:41;20.50;63.30
8945;DHT22;4507;40.232;29.132;2022-07-23T02:44:12;20.40;63.20
8945;DHT22;4507;40.232;29.132;2022-07-23T02:46:59;20.40;63.20
8945;DHT22;4507;40.232;29.132;2022-07-23T02:49:28;20.40;63.30
8945;DHT22;4507;40.232;29.132;2022-07-23T02:51:56;20.40;63.30
8945;DHT22;4507;40.232;29.132;2022-07-23T02:54:26;20.40;63.70
8945;DHT22;4507;40.232;29.132;2022-07-23T02:56:54;20.30;63.30
8945;DHT22;4507;40.232;29.132;2022-07-23T02:59:24;20.30;63.40
8945;DHT22;4507;40.232;29.132;2022-07-23T03:01:53;20.40;63.50
8945;DHT22;4507;40.232;29.132;2022-07-23T03:04:22;20.40;63.50
8945;DHT22;4507;40.232;29.132;2022-07-23T03:06:51;20.40;63.60
8945;DHT22;4507;40.232;29.132;2022-07-23T03:09:19;20.30;63.50
8945;DHT22;4507;40.232;29.132;2022-07-23T03:11:48;20.40;63.50
8945;DHT22;4507;40.232;29.132;2022-07-23T03:14:19;20.30;63.50
8945;DHT22;4507;40.232;29.132;2022-07-23T03:16:51;20.30;63.60
8945;DHT22;4507;40.232;29.132;2022-07-23T03:19:39;20.40;63.60
8945;DHT22;4507;40.232;29.132;2022-07-23T03:22:08;20.40;63.50
8945;DHT22;4507;40.232;29.132;2022-07-23T03:24:37;20.40;63.30
8945;DHT22;4507;40.232;29.132;2022-07-23T03:27:31;20.40;63.10
8945;DHT22;4507;40.232;29.132;2022-07-23T03:30:00;20.40;63.00
8945;DHT22;4507;40.232;29.132;2022-07-23T03:32:30;20.40;62.90
8945;DHT22;4507;40.232;29.132;2022-07-23T03:34:59;20.40;62.80
8945;DHT22;4507;40.232;29.132;2022-07-23T03:37:29;20.40;62.80
8945;DHT22;4507;40.232;29.132;2022-07-23T03:39:59;20.40;62.80
8945;DHT22;4507;40.232;29.132;2022-07-23T03:42:28;20.50;63.00
8945;DHT22;4507;40.232;29.132;2022-07-23T03:44:57;20.50;63.00
8945;DHT22;4507;40.232;29.132;2022-07-23T03:47:26;20.50;62.80
8945;DHT22;4507;40.232;29.132;2022-07-23T03:49:56;20.60;63.00
8945;DHT22;4507;40.232;29.132;2022-07-23T03:52:25;20.60;62.80
8945;DHT22;4507;40.232;29.132;2022-07-23T03:54:53;20.70;62.80
8945;DHT22;4507;40.232;29.132;2022-07-23T03:57:23;20.70;62.80
8945;DHT22;4507;40.232;29.132;2022-07-23T03:59:52;20.80;62.80
8945;DHT22;4507;40.232;29.132;2022-07-23T04:02:21;20.90;62.80
8945;DHT22;4507;40.232;29.132;2022-07-23T04:04:50;20.90;62.60
8945;DHT22;4507;40.232;29.132;2022-07-23T04:07:20;21.00;62.40
8945;DHT22;4507;40.232;29.132;2022-07-23T04:09:49;21.10;62.00
8945;DHT22;4507;40.232;29.132;2022-07-23T04:12:18;21.10;61.70
8945;DHT22;4507;40.232;29.132;2022-07-23T04:14:46;21.20;61.60
8945;DHT22;4507;40.232;29.132;2022-07-23T04:17:15;21.30;61.50
8945;DHT22;4507;40.232;29.132;2022-07-23T04:19:44;21.20;61.30
8945;DHT22;4507;40.232;29.132;2022-07-23T04:22:16;21.40;61.00
8945;DHT22;4507;40.232;29.132;2022-07-23T04:24:47;21.50;61.10
8945;DHT22;4507;40.232;29.132;2022-07-23T04:27:16;21.40;60.80
8945;DHT22;4507;40.232;29.132;2022-07-23T04:29:45;21.70;61.00
8945;DHT22;4507;40.232;29.132;2022-07-23T04:32:14;21.60;61.00
8945;DHT22;4507;40.232;29.132;2022-07-23T04:34:42;21.80;61.30
8945;DHT22;4507;40.232;29.132;2022-07-23T04:37:12;21.70;61.00
8945;DHT22;4507;40.232;29.132;2022-07-23T04:39:40;21.70;60.90
8945;DHT22;4507;40.232;29.132;2022-07-23T04:42:10;21.80;61.00
8945;DHT22;4507;40.232;29.132;2022-07-23T04:44:40;21.80;60.90
8945;DHT22;4507;40.232;29.132;2022-07-23T04:47:10;21.90;61.00
8945;DHT22;4507;40.232;29.132;2022-07-23T04:49:41;22.00;61.20
8945;DHT22;4507;40.232;29.132;2022-07-23T04:52:29;22.00;61.30
8945;DHT22;4507;40.232;29.132;2022-07-23T04:54:58;22.10;61.50
8945;DHT22;4507;40.232;29.132;2022-07-23T04:57:28;22.20;61.70
8945;DHT22;4507;40.232;29.132;2022-07-23T04:59:57;22.30;61.90
8945;DHT22;4507;40.232;29.132;2022-07-23T05:02:26;22.30;62.00
8945;DHT22;4507;40.232;29.132;2022-07-23T05:04:54;22.40;62.20
8945;DHT22;4507;40.232;29.132;2022-07-23T05:07:23;22.50;62.30
8945;DHT22;4507;40.232;29.132;2022-07-23T05:09:53;22.50;62.50
8945;DHT22;4507;40.232;29.132;2022-07-23T05:12:21;22.60;62.60
8945;DHT22;4507;40.232;29.132;2022-07-23T05:14:51;22.70;62.70
8945;DHT22;4507;40.232;29.132;2022-07-23T05:17:21;22.80;62.60
8945;DHT22;4507;40.232;29.132;2022-07-23T05:19:50;22.90;62.60
8945;DHT22;4507;40.232;29.132;2022-07-23T05:22:26;22.90;62.40
8945;DHT22;4507;40.232;29.132;2022-07-23T05:24:55;23.00;62.10
8945;DHT22;4507;40.232;29.132;2022-07-23T05:27:24;23.10;61.90
8945;DHT22;4507;40.232;29.132;2022-07-23T05:29:54;23.20;61.70
8945;DHT22;4507;40.232;29.132;2022-07-23T05:32:23;23.30;61.60
8945;DHT22;4507;40.232;29.132;2022-07-23T05:35:01;23.40;61.50
8945;DHT22;4507;40.232;29.132;2022-07-23T05:37:49;23.50;61.40
8945;DHT22;4507;40.232;29.132;2022-07-23T05:40:20;23.60;61.30
8945;DHT22;4507;40.232;29.132;2022-07-23T05:42:48;23.70;61.10
8945;DHT22;4507;40.232;29.132;2022-07-23T05:45:20;23.70;60.90
8945;DHT22;4507;40.232;29.132;2022-07-23T05:47:52;23.80;60.70
8945;DHT22;4507;40.232;29.132;2022-07-23T05:50:27;24.00;60.90
8945;DHT22;4507;40.232;29.132;2022-07-23T05:53:01;24.00;60.70
8945;DHT22;4507;40.232;29.132;2022-07-23T05:55:51;24.20;60.70
8945;DHT22;4507;40.232;29.132;2022-07-23T05:58:20;24.30;60.50
8945;DHT22;4507;40.232;29.132;2022-07-23T06:00:50;24.40;60.30
8945;DHT22;4507;40.232;29.132;2022-07-23T06:03:18;24.40;60.10
8945;DHT22;4507;40.232;29.132;2022-07-23T06:05:47;24.60;60.20
8945;DHT22;4507;40.232;29.132;2022-07-23T06:08:17;24.70;60.00
8945;DHT22;4507;40.232;29.132;2022-07-23T06:10:45;24.90;60.00
8945;DHT22;4507;40.232;29.132;2022-07-23T06:13:14;24.90;59.80
8945;DHT22;4507;40.232;29.132;2022-07-23T06:15:43;25.00;59.60
8945;DHT22;4507;40.232;29.132;2022-07-23T06:18:13;25.20;59.30
8945;DHT22;4507;40.232;29.132;2022-07-23T06:20:42;25.30;59.00
8945;DHT22;4507;40.232;29.132;2022-07-23T06:23:16;25.40;58.70
8945;DHT22;4507;40.232;29.132;2022-07-23T06:25:45;25.50;58.50
8945;DHT22;4507;40.232;29.132;2022-07-23T06:28:13;25.60;58.10
8945;DHT22;4507;40.232;29.132;2022-07-23T06:30:42;25.70;57.80
8945;DHT22;4507;40.232;29.132;2022-07-23T06:33:12;25.90;57.60
8945;DHT22;4507;40.232;29.132;2022-07-23T06:35:43;26.00;57.30
8945;DHT22;4507;40.232;29.132;2022-07-23T06:38:13;26.10;56.90
8945;DHT22;4507;40.232;29.132;2022-07-23T06:40:43;26.20;56.60
8945;DHT22;4507;40.232;29.132;2022-07-23T06:43:12;26.30;56.40
8945;DHT22;4507;40.232;29.132;2022-07-23T06:45:43;26.50;56.20
8945;DHT22;4507;40.232;29.132;2022-07-23T06:48:14;26.50;55.90
8945;DHT22;4507;40.232;29.132;2022-07-23T06:50:42;26.60;55.70
8945;DHT22;4507;40.232;29.132;2022-07-23T06:53:11;26.80;55.70
8945;DHT22;4507;40.232;29.132;2022-07-23T06:55:41;26.90;55.70
8945;DHT22;4507;40.232;29.132;2022-07-23T06:58:13;27.00;55.30
8945;DHT22;4507;40.232;29.132;2022-07-23T07:00:43;27.10;54.90
8945;DHT22;4507;40.232;29.132;2022-07-23T07:03:13;27.30;54.50
8945;DHT22;4507;40.232;29.132;2022-07-23T07:05:42;27.40;54.10
8945;DHT22;4507;40.232;29.132;2022-07-23T07:08:11;27.60;54.00
8945;DHT22;4507;40.232;29.132;2022-07-23T07:10:39;27.60;53.90
8945;DHT22;4507;40.232;29.132;2022-07-23T07:13:08;27.70;53.60
8945;DHT22;4507;40.232;29.132;2022-07-23T07:15:37;27.70;53.40
8945;DHT22;4507;40.232;29.132;2022-07-23T07:18:05;27.90;53.30
8945;DHT22;4507;40.232;29.132;2022-07-23T07:20:36;28.00;52.90
8945;DHT22;4507;40.232;29.132;2022-07-23T07:23:04;28.00;52.20
8945;DHT22;4507;40.232;29.132;2022-07-23T07:25:33;28.20;52.00
8945;DHT22;4507;40.232;29.132;2022-07-23T07:28:02;28.20;51.60
8945;DHT22;4507;40.232;29.132;2022-07-23T07:30:30;28.30;51.30
8945;DHT22;4507;40.232;29.132;2022-07-23T07:33:00;28.40;50.70
8945;DHT22;4507;40.232;29.132;2022-07-23T07:35:29;28.50;50.30
8945;DHT22;4507;40.232;29.132;2022-07-23T07:37:59;28.70;50.10
8945;DHT22;4507;40.232;29.132;2022-07-23T07:40:28;28.80;49.50
8945;DHT22;4507;40.232;29.132;2022-07-23T07:43:00;28.90;49.50
8945;DHT22;4507;40.232;29.132;2022-07-23T07:45:49;28.90;49.10
8945;DHT22;4507;40.232;29.132;2022-07-23T07:48:18;29.10;48.80
8945;DHT22;4507;40.232;29.132;2022-07-23T07:50:46;29.10;48.60
8945;DHT22;4507;40.232;29.132;2022-07-23T07:53:17;29.30;48.40
8945;DHT22;4507;40.232;29.132;2022-07-23T07:55:45;29.40;47.90
8945;DHT22;4507;40.232;29.132;2022-07-23T07:58:35;29.50;47.50
8945;DHT22;4507;40.232;29.132;2022-07-23T08:01:04;29.50;47.30
8945;DHT22;4507;40.232;29.132;2022-07-23T08:03:33;29.70;47.10
8945;DHT22;4507;40.232;29.132;2022-07-23T08:06:21;29.80;46.70
8945;DHT22;4507;40.232;29.132;2022-07-23T08:08:52;29.90;46.10
8945;DHT22;4507;40.232;29.132;2022-07-23T08:11:20;30.00;45.70
8945;DHT22;4507;40.232;29.132;2022-07-23T08:13:49;30.10;45.50
8945;DHT22;4507;40.232;29.132;2022-07-23T08:16:18;30.20;45.10
8945;DHT22;4507;40.232;29.132;2022-07-23T08:18:47;30.30;44.80
8945;DHT22;4507;40.232;29.132;2022-07-23T08:21:16;30.40;44.50
8945;DHT22;4507;40.232;29.132;2022-07-23T08:23:44;30.50;44.20
8945;DHT22;4507;40.232;29.132;2022-07-23T08:26:14;30.50;43.90
8945;DHT22;4507;40.232;29.132;2022-07-23T08:28:43;30.60;43.60
8945;DHT22;4507;40.232;29.132;2022-07-23T08:31:12;30.60;43.30
8945;DHT22;4507;40.232;29.132;2022-07-23T08:33:42;30.70;43.10
8945;DHT22;4507;40.232;29.132;2022-07-23T08:36:11;30.80;42.70
8945;DHT22;4507;40.232;29.132;2022-07-23T08:38:39;30.90;42.20
8945;DHT22;4507;40.232;29.132;2022-07-23T08:41:10;30.80;41.50
8945;DHT22;4507;40.232;29.132;2022-07-23T08:43:42;30.90;41.50
8945;DHT22;4507;40.232;29.132;2022-07-23T08:46:30;31.00;41.20
8945;DHT22;4507;40.232;29.132;2022-07-23T08:48:59;31.10;41.00
8945;DHT22;4507;40.232;29.132;2022-07-23T08:51:28;31.20;40.90
8945;DHT22;4507;40.232;29.132;2022-07-23T08:53:57;31.20;40.40
8945;DHT22;4507;40.232;29.132;2022-07-23T08:56:26;31.40;40.40
8945;DHT22;4507;40.232;29.132;2022-07-23T08:58:56;31.40;40.90
8945;DHT22;4507;40.232;29.132;2022-07-23T09:01:26;31.40;40.30
8945;DHT22;4507;40.232;29.132;2022-07-23T09:03:54;31.60;39.80
8945;DHT22;4507;40.232;29.132;2022-07-23T09:06:23;31.60;39.70
8945;DHT22;4507;40.232;29.132;2022-07-23T09:08:52;31.70;39.20
8945;DHT22;4507;40.232;29.132;2022-07-23T09:11:21;31.80;39.70
8945;DHT22;4507;40.232;29.132;2022-07-23T09:13:50;31.90;38.80
8945;DHT22;4507;40.232;29.132;2022-07-23T09:16:23;32.00;38.80
8945;DHT22;4507;40.232;29.132;2022-07-23T09:18:53;32.00;38.30
8945;DHT22;4507;40.232;29.132;2022-07-23T09:21:23;32.00;38.10
8945;DHT22;4507;40.232;29.132;2022-07-23T09:23:52;32.20;38.40
8945;DHT22;4507;40.232;29.132;2022-07-23T09:26:28;32.10;38.30
8945;DHT22;4507;40.232;29.132;2022-07-23T09:28:59;32.30;38.10
8945;DHT22;4507;40.232;29.132;2022-07-23T09:31:34;32.30;38.10
8945;DHT22;4507;40.232;29.132;2022-07-23T09:34:11;32.40;37.30
8945;DHT22;4507;40.232;29.132;2022-07-23T09:36:40;32.50;37.70
8945;DHT22;4507;40.232;29.132;2022-07-23T09:39:09;32.60;38.00
8945;DHT22;4507;40.232;29.132;2022-07-23T09:41:39;32.70;37.60
8945;DHT22;4507;40.232;29.132;2022-07-23T09:44:09;32.70;37.30
8945;DHT22;4507;40.232;29.132;2022-07-23T09:46:39;32.70;36.50
8945;DHT22;4507;40.232;29.132;2022-07-23T09:49:16;32.90;36.30
8945;DHT22;4507;40.232;29.132;2022-07-23T09:51:46;32.80;35.70
8945;DHT22;4507;40.232;29.132;2022-07-23T09:54:22;32.90;35.90
8945;DHT22;4507;40.232;29.132;2022-07-23T09:56:51;32.90;35.30
8945;DHT22;4507;40.232;29.132;2022-07-23T09:59:22;32.90;35.30
8945;DHT22;4507;40.232;29.132;2022-07-23T10:01:54;32.90;35.30
8945;DHT22;4507;40.232;29.132;2022-07-23T10:04:23;33.00;35.30
8945;DHT22;4507;40.232;29.132;2022-07-23T10:06:56;33.10;35.60
8945;DHT22;4507;40.232;29.132;2022-07-23T10:09:43;33.20;35.70
8945;DHT22;4507;40.232;29.132;2022-07-23T10:12:35;33.30;35.40
8945;DHT22;4507;40.232;29.132;2022-07-23T10:15:16;33.40;34.70
8945;DHT22;4507;40.232;29.132;2022-07-23T10:17:47;33.40;34.50
8945;DHT22;4507;40.232;29.132;2022-07-23T10:20:16;33.40;35.20
8945;DHT22;4507;40.232;29.132;2022-07-23T10:22:46;33.50;34.60
8945;DHT22;4507;40.232;29.132;2022-07-23T10:25:18;33.50;34.60
8945;DHT22;4507;40.232;29.132;2022-07-23T10:27:58;33.60;34.20
8945;DHT22;4507;40.232;29.132;2022-07-23T10:30:30;33.70;34.30
8945;DHT22;4507;40.232;29.132;2022-07-23T10:33:15;33.70;34.30
8945;DHT22;4507;40.232;29.132;2022-07-23T10:35:47;33.80;34.20
8945;DHT22;4507;40.232;29.132;2022-07-23T10:38:18;33.80;34.00
8945;DHT22;4507;40.232;29.132;2022-07-23T10:40:54;33.90;34.20
8945;DHT22;4507;40.232;29.132;2022-07-23T10:43:24;34.00;33.90
8945;DHT22;4507;40.232;29.132;2022-07-23T10:45:53;34.00;33.40
8945;DHT22;4507;40.232;29.132;2022-07-23T10:48:24;34.00;33.80
8945;DHT22;4507;40.232;29.132;2022-07-23T10:51:07;34.00;33.90
8945;DHT22;4507;40.232;29.132;2022-07-23T10:53:55;34.10;33.80
8945;DHT22;4507;40.232;29.132;2022-07-23T10:59:30;34.30;33.90
8945;DHT22;4507;40.232;29.132;2022-07-23T11:04:51;34.40;33.40
8945;DHT22;4507;40.232;29.132;2022-07-23T11:07:20;34.50;33.10
8945;DHT22;4507;40.232;29.132;2022-07-23T11:09:48;34.50;32.90
8945;DHT22;4507;40.232;29.132;2022-07-23T11:15:22;34.70;32.90
8945;DHT22;4507;40.232;29.132;2022-07-23T11:18:00;34.80;32.80
8945;DHT22;4507;40.232;29.132;2022-07-23T11:20:30;34.90;32.40
8945;DHT22;4507;40.232;29.132;2022-07-23T11:22:59;35.10;32.10
8945;DHT22;4507;40.232;29.132;2022-07-23T11:25:36;35.20;32.30
8945;DHT22;4507;40.232;29.132;2022-07-23T11:28:08;35.40;32.40
8945;DHT22;4507;40.232;29.132;2022-07-23T11:30:38;35.50;32.00
8945;DHT22;4507;40.232;29.132;2022-07-23T11:33:20;35.70;31.90
8945;DHT22;4507;40.232;29.132;2022-07-23T11:35:59;35.90;31.90
8945;DHT22;4507;40.232;29.132;2022-07-23T11:38:31;36.10;31.70
8945;DHT22;4507;40.232;29.132;2022-07-23T11:41:00;36.30;31.40
8945;DHT22;4507;40.232;29.132;2022-07-23T11:43:28;36.40;31.60
8945;DHT22;4507;40.232;29.132;2022-07-23T11:45:58;36.50;31.70
8945;DHT22;4507;40.232;29.132;2022-07-23T11:48:27;36.70;31.60
8945;DHT22;4507;40.232;29.132;2022-07-23T11:50:58;36.80;30.80
8945;DHT22;4507;40.232;29.132;2022-07-23T11:53:28;37.00;30.60
8945;DHT22;4507;40.232;29.132;2022-07-23T11:56:02;37.10;30.40
8945;DHT22;4507;40.232;29.132;2022-07-23T11:58:31;37.20;30.90
8945;DHT22;4507;40.232;29.132;2022-07-23T12:01:00;37.30;30.50
8945;DHT22;4507;40.232;29.132;2022-07-23T12:03:28;37.20;30.60
8945;DHT22;4507;40.232;29.132;2022-07-23T12:05:59;37.10;30.70
8945;DHT22;4507;40.232;29.132;2022-07-23T12:08:28;37.00;30.60
8945;DHT22;4507;40.232;29.132;2022-07-23T12:10:57;36.80;30.60
8945;DHT22;4507;40.232;29.132;2022-07-23T12:13:25;36.60;30.50
8945;DHT22;4507;40.232;29.132;2022-07-23T12:15:56;36.60;31.00
8945;DHT22;4507;40.232;29.132;2022-07-23T12:18:27;36.60;30.60
8945;DHT22;4507;40.232;29.132;2022-07-23T12:21:22;36.70;30.80
8945;DHT22;4507;40.232;29.132;2022-07-23T12:23:51;36.80;30.90
8945;DHT22;4507;40.232;29.132;2022-07-23T12:26:19;36.90;30.70
8945;DHT22;4507;40.232;29.132;2022-07-23T12:28:51;36.90;30.70
8945;DHT22;4507;40.232;29.132;2022-07-23T12:31:25;36.90;30.40
8945;DHT22;4507;40.232;29.132;2022-07-23T12:33:54;37.00;30.60
8945;DHT22;4507;40.232;29.132;2022-07-23T12:36:37;37.10;30.50
8945;DHT22;4507;40.232;29.132;2022-07-23T12:39:08;37.10;30.40
8945;DHT22;4507;40.232;29.132;2022-07-23T12:41:50;37.30;30.40
8945;DHT22;4507;40.232;29.132;2022-07-23T12:44:19;37.60;30.00
8945;DHT22;4507;40.232;29.132;2022-07-23T12:46:49;37.80;29.70
8945;DHT22;4507;40.232;29.132;2022-07-23T12:49:25;38.10;29.50
8945;DHT22;4507;40.232;29.132;2022-07-23T12:51:57;38.20;28.60
8945;DHT22;4507;40.232;29.132;2022-07-23T12:54:27;38.10;28.40
8945;DHT22;4507;40.232;29.132;2022-07-23T12:56:56;37.90;28.70
8945;DHT22;4507;40.232;29.132;2022-07-23T12:59:25;37.60;28.50
8945;DHT22;4507;40.232;29.132;2022-07-23T13:01:59;37.30;28.80
8945;DHT22;4507;40.232;29.132;2022-07-23T13:04:29;37.20;28.60
8945;DHT22;4507;40.232;29.132;2022-07-23T13:07:00;37.20;28.80
8945;DHT22;4507;40.232;29.132;2022-07-23T13:09:31;37.00;28.80
8945;DHT22;4507;40.232;29.132;2022-07-23T13:12:08;36.90;28.80
8945;DHT22;4507;40.232;29.132;2022-07-23T13:14:37;36.60;28.80
8945;DHT22;4507;40.232;29.132;2022-07-23T13:17:26;36.30;29.00
8945;DHT22;4507;40.232;29.132;2022-07-23T13:19:55;36.00;29.50
8945;DHT22;4507;40.232;29.132;2022-07-23T13:22:25;35.60;29.80
8945;DHT22;4507;40.232;29.132;2022-07-23T13:24:54;35.40;30.20
8945;DHT22;4507;40.232;29.132;2022-07-23T13:27:22;35.20;30.60
8945;DHT22;4507;40.232;29.132;2022-07-23T13:29:51;35.00;31.10
8945;DHT22;4507;40.232;29.132;2022-07-23T13:32:20;34.90;31.40
8945;DHT22;4507;40.232;29.132;2022-07-23T13:34:49;34.80;31.80
8945;DHT22;4507;40.232;29.132;2022-07-23T13:37:19;34.60;31.90
8945;DHT22;4507;40.232;29.132;2022-07-23T13:39:49;34.50;32.40
8945;DHT22;4507;40.232;29.132;2022-07-23T13:42:19;34.40;32.40
8945;DHT22;4507;40.232;29.132;2022-07-23T13:44:49;34.30;32.70
8945;DHT22;4507;40.232;29.132;2022-07-23T13:47:18;34.30;33.00
8945;DHT22;4507;40.232;29.132;2022-07-23T13:49:46;34.30;33.30
8945;DHT22;4507;40.232;29.132;2022-07-23T13:52:15;34.50;33.90
8945;DHT22;4507;40.232;29.132;2022-07-23T13:54:44;34.50;33.10
8945;DHT22;4507;40.232;29.132;2022-07-23T13:57:14;34.50;33.00
8945;DHT22;4507;40.232;29.132;2022-07-23T13:59:43;34.60;33.10
8945;DHT22;4507;40.232;29.132;2022-07-23T14:02:12;34.50;33.00
8945;DHT22;4507;40.232;29.132;2022-07-23T14:05:09;34.50;32.80
8945;DHT22;4507;40.232;29.132;2022-07-23T14:07:38;34.30;32.80
8945;DHT22;4507;40.232;29.132;2022-07-23T14:10:07;34.10;33.00
8945;DHT22;4507;40.232;29.132;2022-07-23T14:12:57;34.00;33.50
8945;DHT22;4507;40.232;29.132;2022-07-23T14:15:27;33.80;33.60
8945;DHT22;4507;40.232;29.132;2022-07-23T14:18:14;33.70;33.70
8945;DHT22;4507;40.232;29.132;2022-07-23T14:20:44;33.50;33.70
8945;DHT22;4507;40.232;29.132;2022-07-23T14:23:13;33.40;34.00
8945;DHT22;4507;40.232;29.132;2022-07-23T14:25:41;33.40;34.50
8945;DHT22;4507;40.232;29.132;2022-07-23T14:28:14;33.30;34.80
8945;DHT22;4507;40.232;29.132;2022-07-23T14:30:46;33.20;34.90
8945;DHT22;4507;40.232;29.132;2022-07-23T14:33:15;33.20;35.10
8945;DHT22;4507;40.232;29.132;2022-07-23T14:35:44;33.10;35.10
8945;DHT22;4507;40.232;29.132;2022-07-23T14:38:13;33.10;35.30
8945;DHT22;4507;40.232;29.132;2022-07-23T14:40:42;33.10;35.50
8945;DHT22;4507;40.232;29.132;2022-07-23T14:43:11;33.00;35.70
8945;DHT22;4507;40.232;29.132;2022-07-23T14:45:41;33.00;35.90
8945;DHT22;4507;40.232;29.132;2022-07-23T14:48:15;33.00;36.30
8945;DHT22;4507;40.232;29.132;2022-07-23T14:50:43;32.90;36.00
8945;DHT22;4507;40.232;29.132;2022-07-23T14:53:12;32.80;36.00
8945;DHT22;4507;40.232;29.132;2022-07-23T14:55:48;32.90;36.30
8945;DHT22;4507;40.232;29.132;2022-07-23T14:58:17;32.90;36.40
8945;DHT22;4507;40.232;29.132;2022-07-23T15:00:48;32.90;36.50
8945;DHT22;4507;40.232;29.132;2022-07-23T15:03:17;32.90;36.70
8945;DHT22;4507;40.232;29.132;2022-07-23T15:05:46;32.90;37.00
8945;DHT22;4507;40.232;29.132;2022-07-23T15:08:14;32.90;37.40
8945;DHT22;4507;40.232;29.132;2022-07-23T15:10:49;32.90;37.00
8945;DHT22;4507;40.232;29.132;2022-07-23T15:13:18;32.80;36.90
8945;DHT22;4507;40.232;29.132;2022-07-23T15:15:48;32.80;37.00
8945;DHT22;4507;40.232;29.132;2022-07-23T15:18:40;32.70;37.60
8945;DHT22;4507;40.232;29.132;2022-07-23T15:21:09;32.60;38.10
8945;DHT22;4507;40.232;29.132;2022-07-23T15:23:38;32.60;38.40
8945;DHT22;4507;40.232;29.132;2022-07-23T15:26:07;32.50;38.70
8945;DHT22;4507;40.232;29.132;2022-07-23T15:28:36;32.50;39.00
8945;DHT22;4507;40.232;29.132;2022-07-23T15:31:06;32.40;38.90
8945;DHT22;4507;40.232;29.132;2022-07-23T15:33:36;32.40;39.30
8945;DHT22;4507;40.232;29.132;2022-07-23T15:36:07;32.30;39.90
8945;DHT22;4507;40.232;29.132;2022-07-23T15:38:36;32.30;39.90
8945;DHT22;4507;40.232;29.132;2022-07-23T15:41:05;32.20;40.00
8945;DHT22;4507;40.232;29.132;2022-07-23T15:43:35;32.10;40.10
8945;DHT22;4507;40.232;29.132;2022-07-23T15:46:04;32.10;40.60
8945;DHT22;4507;40.232;29.132;2022-07-23T15:48:36;32.00;40.70
8945;DHT22;4507;40.232;29.132;2022-07-23T15:51:05;31.90;40.90
8945;DHT22;4507;40.232;29.132;2022-07-23T15:53:34;31.80;41.00
8945;DHT22;4507;40.232;29.132;2022-07-23T15:56:04;31.70;41.00
8945;DHT22;4507;40.232;29.132;2022-07-23T15:58:58;31.70;41.30
8945;DHT22;4507;40.232;29.132;2022-07-23T16:01:28;31.60;41.60
8945;DHT22;4507;40.232;29.132;2022-07-23T16:03:58;31.50;41.50
8945;DHT22;4507;40.232;29.132;2022-07-23T16:06:27;31.40;41.50
8945;DHT22;4507;40.232;29.132;2022-07-23T16:08:56;31.40;41.80
8945;DHT22;4507;40.232;29.132;2022-07-23T16:11:30;31.30;42.00
8945;DHT22;4507;40.232;29.132;2022-07-23T16:13:58;31.20;42.50
8945;DHT22;4507;40.232;29.132;2022-07-23T16:16:27;31.10;42.40
8945;DHT22;4507;40.232;29.132;2022-07-23T16:18:57;31.00;42.40